createdAt,value
2022-12-18T00:02:05.083Z,13.45
2022-12-18T00:05:08.411Z,16.47
2022-12-18T00:08:11.985Z,24.75
2022-12-18T00:11:18.591Z,19.60
2022-12-18T00:14:21.591Z,35.67
2022-12-18T00:17:24.950Z,45.92
2022-12-18T00:20:27.836Z,19.95
2022-12-18T00:23:31.736Z,20.10
2022-12-18T00:26:36.513Z,28.20
2022-12-18T00:29:42.927Z,24.10
2022-12-18T00:32:46.056Z,33.70
2022-12-18T00:35:49.552Z,24.47
2022-12-18T00:38:52.656Z,33.53
2022-12-18T00:42:14.050Z,39.03
2022-12-18T00:45:17.795Z,25.42
2022-12-18T00:48:20.828Z,27.75
2022-12-18T00:51:25.606Z,33.83
2022-12-18T00:54:29.007Z,29.95
2022-12-18T00:57:33.151Z,21.43
2022-12-18T01:00:38.267Z,52.20
2022-12-18T01:03:42.106Z,39.03
2022-12-18T01:06:46.139Z,55.10
2022-12-18T01:09:49.029Z,31.38
2022-12-18T01:12:53.068Z,33.83
2022-12-18T01:15:56.622Z,89.80
2022-12-18T01:18:59.465Z,74.57
2022-12-18T01:22:03.972Z,59.28
2022-12-18T01:25:07.354Z,43.25
2022-12-18T01:28:11.344Z,61.20
2022-12-18T01:31:40.592Z,34.92
2022-12-18T01:34:43.595Z,27.20
2022-12-18T01:37:46.623Z,67.40
2022-12-18T01:40:49.786Z,24.40
2022-12-18T01:43:58.873Z,85.75
2022-12-18T01:47:02.952Z,62.10
2022-12-18T01:50:14.778Z,37.38
2022-12-18T01:53:25.826Z,42.55
2022-12-18T01:56:28.898Z,54.33
2022-12-18T01:59:34.407Z,60.27
2022-12-18T02:02:38.225Z,32.15
2022-12-18T02:06:03.051Z,43.33
2022-12-18T02:09:16.895Z,41.20
2022-12-18T02:12:23.520Z,98.70
2022-12-18T02:15:40.597Z,55.95
2022-12-18T02:18:49.841Z,119.88
2022-12-18T02:22:15.479Z,54.20
2022-12-18T02:25:43.799Z,76.43
2022-12-18T02:29:01.110Z,72.60
2022-12-18T02:32:11.067Z,74.70
2022-12-18T02:35:24.121Z,50.03
2022-12-18T02:38:32.936Z,76.82
2022-12-18T02:41:43.502Z,53.23
2022-12-18T02:44:49.473Z,116.20
2022-12-18T02:47:56.071Z,91.38
2022-12-18T02:51:12.711Z,31.95
2022-12-18T02:54:34.462Z,48.20
2022-12-18T02:57:59.877Z,36.42
2022-12-18T03:01:22.108Z,67.68
2022-12-18T03:04:25.078Z,46.60
2022-12-18T03:07:48.377Z,42.60
2022-12-18T03:11:11.547Z,30.42
2022-12-18T03:14:18.751Z,49.17
2022-12-18T03:17:28.381Z,49.08
2022-12-18T03:20:34.481Z,42.17
2022-12-18T03:23:49.007Z,39.65
2022-12-18T03:26:56.780Z,21.93
2022-12-18T03:30:11.817Z,51.95
2022-12-18T03:33:47.555Z,51.53
2022-12-18T03:36:51.238Z,45.63
2022-12-18T03:39:55.447Z,59.58
2022-12-18T03:43:32.006Z,52.42
2022-12-18T03:46:42.667Z,115.68
2022-12-18T03:49:58.114Z,26.08
2022-12-18T03:53:16.811Z,41.13
2022-12-18T03:56:25.679Z,71.20
2022-12-18T03:59:31.477Z,38.60
2022-12-18T04:02:36.719Z,82.53
2022-12-18T04:05:42.316Z,162.68
2022-12-18T04:08:46.776Z,125.40
2022-12-18T04:11:54.059Z,160.18
2022-12-18T04:14:58.047Z,164.25
2022-12-18T04:18:01.325Z,106.75
2022-12-18T04:21:12.791Z,32.90
2022-12-18T04:24:16.912Z,136.27
2022-12-18T04:27:29.062Z,135.52
2022-12-18T04:30:36.002Z,152.60
2022-12-18T04:33:40.243Z,152.80
2022-12-18T04:36:44.404Z,157.25
2022-12-18T04:39:49.746Z,120.37
2022-12-18T04:43:00.831Z,164.43
2022-12-18T04:46:08.506Z,83.25
2022-12-18T04:49:15.402Z,89.82
2022-12-18T04:52:18.377Z,71.57
2022-12-18T04:55:21.600Z,39.28
2022-12-18T04:58:25.468Z,29.65
2022-12-18T05:01:34.288Z,35.63
2022-12-18T05:04:39.495Z,48.55
2022-12-18T05:07:43.011Z,38.60
2022-12-18T05:10:46.313Z,111.80
2022-12-18T05:13:49.586Z,45.95
2022-12-18T05:16:55.729Z,51.78
2022-12-18T05:20:01.621Z,40.63
2022-12-18T05:23:04.525Z,63.33
2022-12-18T05:26:09.600Z,38.78
2022-12-18T05:29:14.076Z,92.38
2022-12-18T05:32:18.242Z,61.37
2022-12-18T05:35:22.152Z,50.33
2022-12-18T05:38:28.114Z,97.38
2022-12-18T05:41:31.766Z,48.20
2022-12-18T05:44:35.899Z,19.25
2022-12-18T05:47:38.781Z,55.05
2022-12-18T05:50:44.139Z,27.10
2022-12-18T05:53:48.409Z,23.20
2022-12-18T05:56:51.404Z,73.07
2022-12-18T05:59:55.273Z,63.15
2022-12-18T06:02:59.321Z,33.13
2022-12-18T06:06:03.498Z,51.50
2022-12-18T06:09:11.464Z,92.45
2022-12-18T06:12:14.416Z,67.53
2022-12-18T06:15:17.706Z,50.13
2022-12-18T06:18:20.562Z,59.00
2022-12-18T06:21:23.904Z,75.63
2022-12-18T06:24:26.874Z,72.03
2022-12-18T06:27:29.837Z,79.72
2022-12-18T06:30:33.189Z,81.03
2022-12-18T06:33:37.409Z,72.57
2022-12-18T06:36:41.304Z,35.08
2022-12-18T06:39:44.634Z,19.25
2022-12-18T06:42:48.316Z,46.03
2022-12-18T06:45:54.514Z,16.70
2022-12-18T06:48:58.139Z,21.92
2022-12-18T06:52:02.215Z,61.70
2022-12-18T06:55:06.550Z,11.38
2022-12-18T06:58:11.754Z,36.83
2022-12-18T07:01:16.473Z,32.63
2022-12-18T07:04:20.589Z,34.40
2022-12-18T07:07:24.383Z,35.60
2022-12-18T07:10:28.489Z,22.48
2022-12-18T07:13:31.443Z,18.30
2022-12-18T07:16:34.666Z,32.67
2022-12-18T07:19:38.483Z,23.92
2022-12-18T07:22:42.689Z,42.75
2022-12-18T07:25:46.352Z,41.08
2022-12-18T07:28:50.343Z,25.88
2022-12-18T07:31:53.935Z,41.78
2022-12-18T07:34:57.067Z,24.70
2022-12-18T07:38:00.711Z,46.80
2022-12-18T07:41:12.529Z,29.60
2022-12-18T07:44:16.562Z,37.47
2022-12-18T07:47:19.522Z,21.25
2022-12-18T07:50:22.940Z,26.85
2022-12-18T07:53:26.571Z,37.70
2022-12-18T07:56:31.286Z,13.27
2022-12-18T07:59:35.285Z,18.02
2022-12-18T08:02:39.416Z,22.60
2022-12-18T08:05:42.616Z,42.57
2022-12-18T08:08:46.139Z,74.80
2022-12-18T08:11:50.149Z,52.90
2022-12-18T08:14:53.898Z,38.63
2022-12-18T08:18:00.774Z,107.28
2022-12-18T08:21:11.911Z,127.85
2022-12-18T08:24:15.992Z,176.68
2022-12-18T08:27:34.913Z,130.43
2022-12-18T08:30:38.181Z,152.57
2022-12-18T08:33:43.130Z,208.65
2022-12-18T08:36:46.592Z,115.47
2022-12-18T08:39:50.208Z,83.88
2022-12-18T08:43:11.692Z,46.03
2022-12-18T08:46:15.585Z,127.03
2022-12-18T08:49:18.558Z,48.47
2022-12-18T08:52:21.933Z,98.50
2022-12-18T08:55:26.489Z,43.15
2022-12-18T08:58:29.348Z,54.77
2022-12-18T09:01:32.615Z,114.97
2022-12-18T09:04:37.058Z,110.07
2022-12-18T09:07:40.840Z,146.83
2022-12-18T09:10:45.168Z,33.25
2022-12-18T09:13:48.312Z,79.70
2022-12-18T09:16:51.300Z,107.47
2022-12-18T09:19:54.668Z,135.25
2022-12-18T09:22:57.908Z,82.38
2022-12-18T09:26:02.132Z,123.97
2022-12-18T09:29:05.637Z,106.67
2022-12-18T09:32:09.179Z,84.80
2022-12-18T09:35:12.881Z,78.15
2022-12-18T09:38:20.279Z,83.47
2022-12-18T09:41:49.311Z,99.25
2022-12-18T09:44:55.906Z,69.57
2022-12-18T09:48:00.228Z,61.05
2022-12-18T09:51:31.564Z,32.58
2022-12-18T09:54:41.566Z,17.83
2022-12-18T09:57:55.198Z,99.20
2022-12-18T10:00:58.769Z,94.10
2022-12-18T10:04:02.039Z,60.22
2022-12-18T10:07:41.086Z,42.65
2022-12-18T10:10:55.545Z,81.80
2022-12-18T10:14:09.267Z,28.33
2022-12-18T10:17:15.999Z,94.25
2022-12-18T10:20:23.595Z,47.38
2022-12-18T10:23:49.008Z,70.65
2022-12-18T10:26:53.864Z,51.55
2022-12-18T10:29:56.738Z,13.63
2022-12-18T10:33:03.740Z,99.97
2022-12-18T10:36:08.217Z,37.22
2022-12-18T10:39:24.013Z,47.33
2022-12-18T10:42:27.254Z,67.87
2022-12-18T10:45:30.274Z,30.55
2022-12-18T10:48:34.891Z,33.08
2022-12-18T10:51:39.598Z,23.45
2022-12-18T10:54:50.552Z,35.30
2022-12-18T10:57:53.643Z,50.70
2022-12-18T11:01:15.595Z,22.52
2022-12-18T11:04:25.097Z,49.73
2022-12-18T11:07:50.639Z,71.90
2022-12-18T11:10:54.250Z,43.50
2022-12-18T11:14:08.145Z,142.90
2022-12-18T11:17:26.292Z,69.82
2022-12-18T11:20:36.886Z,56.30
2022-12-18T11:23:53.067Z,16.35
2022-12-18T11:26:59.845Z,24.90
2022-12-18T11:30:39.402Z,14.88
2022-12-18T11:34:11.874Z,29.10
2022-12-18T11:37:15.179Z,55.63
2022-12-18T11:40:24.565Z,30.05
2022-12-18T11:43:47.461Z,32.38
2022-12-18T11:47:01.598Z,67.50
2022-12-18T11:50:15.395Z,72.50
2022-12-18T11:53:20.259Z,66.15
2022-12-18T11:56:45.829Z,48.08
2022-12-18T12:00:05.622Z,51.25
2022-12-18T12:03:23.741Z,64.88
2022-12-18T12:06:40.628Z,92.78
2022-12-18T12:09:55.999Z,83.93
2022-12-18T12:13:12.040Z,126.35
2022-12-18T12:16:19.443Z,102.53
2022-12-18T12:19:38.473Z,73.43
2022-12-18T12:23:05.059Z,66.25
2022-12-18T12:26:42.934Z,67.38
2022-12-18T12:30:05.587Z,136.25
2022-12-18T12:33:22.028Z,111.25
2022-12-18T12:36:25.455Z,86.90
2022-12-18T12:39:41.551Z,132.10
2022-12-18T12:43:14.656Z,152.03
2022-12-18T12:46:22.243Z,161.02
2022-12-18T12:49:31.210Z,169.90
2022-12-18T12:52:45.898Z,191.50
2022-12-18T12:55:49.676Z,106.60
2022-12-18T12:59:11.594Z,138.68
2022-12-18T13:02:31.007Z,168.35
2022-12-18T13:05:45.022Z,118.82
2022-12-18T13:09:01.574Z,132.60
2022-12-18T13:12:30.246Z,107.55
2022-12-18T13:15:41.290Z,43.33
2022-12-18T13:18:56.107Z,149.57
2022-12-18T13:21:59.826Z,171.80
2022-12-18T13:25:07.229Z,68.37
2022-12-18T13:28:14.707Z,117.93
2022-12-18T13:31:43.560Z,171.02
2022-12-18T13:34:47.331Z,134.43
2022-12-18T13:37:54.892Z,181.25
2022-12-18T13:40:58.962Z,131.38
2022-12-18T13:48:00.334Z,172.37
2022-12-18T13:51:08.239Z,177.90
2022-12-18T13:54:42.963Z,79.93
2022-12-18T13:57:46.885Z,146.17
2022-12-18T14:00:51.194Z,171.27
2022-12-18T14:04:21.338Z,109.90
2022-12-18T14:07:26.988Z,77.00
2022-12-18T14:10:48.719Z,166.90
2022-12-18T14:13:54.457Z,77.57
2022-12-18T14:16:58.395Z,129.00
2022-12-18T14:20:02.881Z,134.20
2022-12-18T14:23:06.519Z,212.70
2022-12-18T14:26:30.824Z,163.02
2022-12-18T14:29:37.139Z,150.87
2022-12-18T14:32:39.999Z,288.20
2022-12-18T14:35:54.241Z,236.60
2022-12-18T14:38:59.489Z,270.23
2022-12-18T14:42:03.162Z,219.20
2022-12-18T14:45:42.208Z,244.35
2022-12-18T14:48:49.946Z,300.60
2022-12-18T14:52:07.724Z,215.73
2022-12-18T14:55:23.058Z,178.93
2022-12-18T14:58:26.660Z,284.33
2022-12-18T15:01:46.182Z,263.63
2022-12-18T15:05:01.424Z,217.40
2022-12-18T15:08:05.430Z,252.57
2022-12-18T15:11:29.741Z,213.75
2022-12-18T15:14:36.653Z,305.95
2022-12-18T15:17:40.429Z,133.98
2022-12-18T15:20:43.517Z,239.85
2022-12-18T15:23:51.907Z,148.57
2022-12-18T15:26:55.360Z,200.98
2022-12-18T15:30:03.187Z,287.80
2022-12-18T15:33:27.120Z,212.20
2022-12-18T15:36:31.896Z,155.70
2022-12-18T15:39:36.834Z,251.48
2022-12-18T15:42:58.308Z,236.57
2022-12-18T15:46:15.266Z,156.73
2022-12-18T15:49:18.658Z,168.35
2022-12-18T15:52:27.411Z,147.38
2022-12-18T15:55:50.127Z,122.33
2022-12-18T15:58:54.196Z,144.20
2022-12-18T16:01:58.037Z,199.02
2022-12-18T16:05:01.804Z,182.03
2022-12-18T16:08:05.720Z,193.65
2022-12-18T16:11:39.487Z,120.20
2022-12-18T16:14:43.589Z,137.10
2022-12-18T16:17:48.943Z,138.55
2022-12-18T16:20:52.672Z,118.07
2022-12-18T16:23:55.944Z,81.13
2022-12-18T16:27:01.615Z,140.47
2022-12-18T16:30:05.592Z,182.77
2022-12-18T16:33:12.002Z,233.65
2022-12-18T16:36:16.298Z,146.73
2022-12-18T16:39:20.030Z,136.43
2022-12-18T16:42:22.991Z,109.72
2022-12-18T16:45:26.813Z,104.72
2022-12-18T16:48:29.896Z,178.30
2022-12-18T16:51:34.335Z,129.02
2022-12-18T16:54:38.548Z,120.93
2022-12-18T16:57:42.090Z,175.63
2022-12-18T17:00:45.596Z,179.68
2022-12-18T17:04:03.318Z,139.98
2022-12-18T17:07:09.256Z,250.60
2022-12-18T17:10:13.025Z,175.10
2022-12-18T17:13:25.616Z,311.35
2022-12-18T17:16:29.759Z,183.00
2022-12-18T17:19:33.475Z,205.85
2022-12-18T17:22:40.792Z,185.55
2022-12-18T17:25:45.053Z,159.68
2022-12-18T17:28:48.952Z,173.37
2022-12-18T17:31:52.145Z,127.55
2022-12-18T17:34:56.611Z,83.22
2022-12-18T17:38:00.135Z,94.17
2022-12-18T17:41:08.862Z,78.15
2022-12-18T17:44:12.675Z,64.20
2022-12-18T17:47:17.280Z,89.28
2022-12-18T17:50:21.428Z,73.95
2022-12-18T17:53:25.299Z,99.88
2022-12-18T17:56:29.159Z,192.18
2022-12-18T17:59:32.835Z,156.13
2022-12-18T18:02:36.225Z,76.68
2022-12-18T18:05:39.624Z,137.20
2022-12-18T18:08:44.147Z,105.73
2022-12-18T18:12:05.607Z,147.52
2022-12-18T18:15:10.278Z,76.90
2022-12-18T18:18:15.010Z,117.35
2022-12-18T18:21:21.262Z,163.23
2022-12-18T18:24:26.389Z,82.15
2022-12-18T18:27:36.880Z,83.78
2022-12-18T18:30:42.858Z,104.00
2022-12-18T18:33:47.013Z,108.30
2022-12-18T18:36:52.980Z,93.28
2022-12-18T18:39:57.524Z,117.90
2022-12-18T18:43:02.689Z,139.55
2022-12-18T18:46:13.525Z,130.35
2022-12-18T18:49:18.010Z,71.32
2022-12-18T18:52:22.194Z,81.07
2022-12-18T18:55:26.010Z,82.82
2022-12-18T18:58:32.873Z,59.55
2022-12-18T19:01:37.071Z,65.67
2022-12-18T19:04:46.021Z,79.97
2022-12-18T19:07:51.097Z,132.15
2022-12-18T19:10:57.914Z,114.00
2022-12-18T19:14:04.088Z,112.45
2022-12-18T19:17:08.996Z,106.75
2022-12-18T19:20:14.545Z,160.32
2022-12-18T19:23:18.049Z,70.28
2022-12-18T19:26:30.187Z,135.60
2022-12-18T19:29:33.462Z,62.50
2022-12-18T19:32:36.747Z,89.33
2022-12-18T19:35:43.258Z,64.60
2022-12-18T19:38:48.731Z,54.00
2022-12-18T19:41:53.226Z,82.07
2022-12-18T19:44:58.876Z,77.70
2022-12-18T19:48:04.600Z,96.22
2022-12-18T19:51:15.020Z,87.35
2022-12-18T19:54:19.463Z,97.55
2022-12-18T19:57:23.613Z,115.82
2022-12-18T20:00:27.935Z,40.70
2022-12-18T20:03:42.880Z,116.83
2022-12-18T20:06:51.970Z,75.75
2022-12-18T20:10:02.561Z,61.00
2022-12-18T20:13:11.225Z,25.77
2022-12-18T20:16:15.573Z,64.40
2022-12-18T20:19:20.009Z,35.97
2022-12-18T20:22:25.090Z,39.65
2022-12-18T20:25:29.458Z,54.70
2022-12-18T20:28:34.489Z,51.60
2022-12-18T20:31:41.518Z,31.52
2022-12-18T20:34:46.221Z,53.97
2022-12-18T20:37:51.885Z,45.20
2022-12-18T20:40:58.077Z,69.65
2022-12-18T20:44:02.846Z,63.33
2022-12-18T20:47:08.857Z,89.47
2022-12-18T20:50:12.384Z,51.55
2022-12-18T20:53:17.007Z,78.70
2022-12-18T20:56:23.013Z,88.72
2022-12-18T20:59:27.361Z,81.65
2022-12-18T21:02:31.426Z,46.63
2022-12-18T21:05:35.717Z,51.63
2022-12-18T21:08:40.162Z,88.22
2022-12-18T21:12:02.440Z,87.78
2022-12-18T21:15:08.656Z,67.63
2022-12-18T21:18:11.651Z,107.05
2022-12-18T21:21:15.620Z,56.08
2022-12-18T21:24:19.988Z,63.28
2022-12-18T21:27:23.420Z,135.23
2022-12-18T21:30:26.320Z,87.53
2022-12-18T21:33:30.262Z,43.08
2022-12-18T21:36:34.356Z,95.43
2022-12-18T21:39:37.621Z,58.55
2022-12-18T21:42:59.838Z,24.88
2022-12-18T21:46:02.833Z,59.20
2022-12-18T21:49:07.646Z,90.50
2022-12-18T21:52:10.796Z,58.75
2022-12-18T21:55:13.789Z,100.97
2022-12-18T21:58:16.624Z,50.67
2022-12-18T22:01:19.601Z,52.60
2022-12-18T22:04:23.571Z,90.45
2022-12-18T22:07:27.143Z,72.33
2022-12-18T22:10:30.438Z,69.13
2022-12-18T22:13:34.042Z,56.20
2022-12-18T22:16:36.941Z,74.47
2022-12-18T22:19:43.174Z,89.20
2022-12-18T22:22:46.928Z,35.88
2022-12-18T22:25:49.846Z,65.22
2022-12-18T22:29:11.280Z,25.13
2022-12-18T22:32:25.586Z,80.28
2022-12-18T22:35:34.544Z,77.28
2022-12-18T22:38:37.835Z,64.80
2022-12-18T22:41:40.800Z,107.97
2022-12-18T22:44:44.542Z,48.08
2022-12-18T22:47:48.129Z,63.30
2022-12-18T22:50:55.980Z,50.83
2022-12-18T22:54:03.322Z,35.17
2022-12-18T22:57:07.229Z,55.13
2022-12-18T23:00:11.699Z,52.30
2022-12-18T23:03:15.825Z,104.85
2022-12-18T23:06:20.894Z,190.95
2022-12-18T23:09:25.040Z,85.70
2022-12-18T23:12:27.991Z,83.88
2022-12-18T23:15:31.316Z,47.50
2022-12-18T23:18:36.229Z,81.70
2022-12-18T23:21:40.251Z,86.00
2022-12-18T23:24:44.405Z,33.17
2022-12-18T23:27:47.995Z,36.53
2022-12-18T23:30:50.923Z,53.83
2022-12-18T23:33:55.864Z,32.90
2022-12-18T23:36:58.913Z,60.28
2022-12-18T23:40:01.812Z,34.20
2022-12-18T23:43:05.431Z,44.55
2022-12-18T23:46:18.768Z,67.93
2022-12-18T23:49:22.372Z,123.30
2022-12-18T23:52:26.215Z,55.45
2022-12-18T23:55:29.958Z,63.28
2022-12-18T23:58:35.141Z,47.88
